Time;durP1;ratioP1;P1;durP2;ratioP2;P2;SDS_P1;SDS_P2;PMS_P1;PMS_P2;Temp;Humidity;BMP_temperature;BMP_pressure;BME280_temperature;BME280_humidity;BME280_pressure;Samples;Min_cycle;Max_cycle;Signal;HPM_P1;HPM_P2
2022/03/17 00:01:19;;;;;;;7.75;3.15;;;;;;;;;;4990648;28;20030;-75
2022/03/17 00:03:45;;;;;;;5.82;2.70;;;;;;;;;;4981627;28;20034;-75
2022/03/17 00:06:13;;;;;;;5.55;2.38;;;;;;;;;;4986291;28;20314;-74
2022/03/17 00:08:39;;;;;;;5.15;2.65;;;;;;;;;;5001710;28;20077;-80
2022/03/17 00:11:05;;;;;;;4.47;2.55;;;;;;;;;;5001480;28;20034;-74
2022/03/17 00:13:30;;;;;;;5.35;2.75;;;;;;;;;;5001373;28;20037;-74
2022/03/17 00:15:56;;;;;;;5.18;2.67;;;;;;;;;;5001437;28;20056;-75
2022/03/17 00:18:22;;;;;;;5.03;2.53;;;;;;;;;;5001312;28;20420;-75
2022/03/17 00:20:47;;;;;;;4.78;2.88;;;;;;;;;;5000966;28;20080;-78
2022/03/17 00:23:12;;;;;;;4.20;2.90;;;;;;;;;;5000252;28;20026;-76
2022/03/17 00:25:38;;;;;;;6.85;3.22;;;;;;;;;;5001098;28;20045;-78
2022/03/17 00:28:04;;;;;;;6.80;3.42;;;;;;;;;;5002864;28;20094;-80
2022/03/17 00:30:29;;;;;;;5.40;3.53;;;;;;;;;;5002312;28;20026;-78
2022/03/17 00:32:54;;;;;;;6.95;3.20;;;;;;;;;;5003324;28;20018;-78
2022/03/17 00:35:36;;;;;;;5.88;3.72;;;;;;;;;;5003993;28;20060;-78
2022/03/17 00:38:09;;;;;;;6.90;3.40;;;;;;;;;;5006814;28;20050;-80
2022/03/17 00:40:37;;;;;;;5.63;3.53;;;;;;;;;;4996199;28;20037;-75
2022/03/17 00:43:07;;;;;;;6.20;3.42;;;;;;;;;;4981606;28;20031;-77
2022/03/17 00:45:32;;;;;;;5.47;3.58;;;;;;;;;;4991640;28;20061;-80
2022/03/17 00:47:58;;;;;;;6.30;3.72;;;;;;;;;;4982031;28;20026;-78
2022/03/17 00:50:24;;;;;;;6.38;4.13;;;;;;;;;;4981216;28;20022;-77
2022/03/17 00:52:50;;;;;;;6.88;4.32;;;;;;;;;;4983823;28;20023;-76
2022/03/17 00:55:15;;;;;;;6.47;4.80;;;;;;;;;;4981502;28;20037;-76
2022/03/17 00:57:41;;;;;;;9.60;5.40;;;;;;;;;;4980291;28;20037;-72
2022/03/17 01:00:09;;;;;;;11.68;5.13;;;;;;;;;;4981383;28;20065;-77
2022/03/17 01:02:35;;;;;;;7.65;5.38;;;;;;;;;;4981363;28;20034;-75
2022/03/17 01:05:01;;;;;;;9.48;5.38;;;;;;;;;;4982302;28;20043;-75
2022/03/17 01:07:27;;;;;;;9.05;5.50;;;;;;;;;;4981127;28;20026;-75
2022/03/17 01:09:52;;;;;;;8.63;5.75;;;;;;;;;;4983582;28;20261;-75
2022/03/17 01:12:17;;;;;;;7.07;5.55;;;;;;;;;;5001353;28;20037;-75
2022/03/17 01:14:43;;;;;;;9.35;5.65;;;;;;;;;;5013016;28;20030;-72
2022/03/17 01:17:08;;;;;;;9.50;5.32;;;;;;;;;;4998072;28;20061;-76
2022/03/17 01:19:34;;;;;;;8.85;5.88;;;;;;;;;;5005889;28;20353;-73
2022/03/17 01:21:59;;;;;;;9.48;5.82;;;;;;;;;;5004709;28;20057;-75
2022/03/17 01:24:25;;;;;;;10.32;6.05;;;;;;;;;;5008133;28;20040;-73
2022/03/17 01:26:51;;;;;;;11.63;6.15;;;;;;;;;;5007883;28;20090;-73
2022/03/17 01:29:16;;;;;;;10.68;6.20;;;;;;;;;;5010872;28;20026;-73
2022/03/17 01:31:43;;;;;;;10.82;6.25;;;;;;;;;;5007161;28;20341;-73
2022/03/17 01:34:08;;;;;;;12.48;5.65;;;;;;;;;;5001437;28;20026;-73
2022/03/17 01:36:34;;;;;;;10.57;6.75;;;;;;;;;;5001332;28;20297;-73
2022/03/17 01:38:59;;;;;;;12.50;6.13;;;;;;;;;;5001829;28;20029;-73
2022/03/17 01:41:24;;;;;;;11.88;6.22;;;;;;;;;;5001652;28;20026;-73
2022/03/17 01:43:50;;;;;;;9.30;5.85;;;;;;;;;;5001539;28;20030;-74
2022/03/17 01:46:16;;;;;;;11.10;6.28;;;;;;;;;;5001219;28;20030;-75
2022/03/17 01:48:42;;;;;;;11.63;6.60;;;;;;;;;;5001221;28;20037;-74
2022/03/17 01:51:08;;;;;;;11.73;6.47;;;;;;;;;;5000856;28;20038;-73
2022/03/17 01:53:34;;;;;;;10.85;6.50;;;;;;;;;;5001457;28;20026;-75
2022/03/17 01:56:01;;;;;;;11.80;7.10;;;;;;;;;;5003629;28;20037;-74
2022/03/17 01:58:26;;;;;;;10.70;6.95;;;;;;;;;;5005264;28;20049;-75
2022/03/17 02:00:52;;;;;;;11.05;7.03;;;;;;;;;;5005180;28;20213;-73
2022/03/17 02:03:18;;;;;;;10.73;6.53;;;;;;;;;;5005205;28;20027;-73
2022/03/17 02:05:43;;;;;;;11.68;7.25;;;;;;;;;;5004422;28;20037;-73
2022/03/17 02:08:10;;;;;;;13.63;7.03;;;;;;;;;;5005169;28;20050;-73
2022/03/17 02:13:40;;;;;;;11.98;6.72;;;;;;;;;;4982985;28;20022;-76
2022/03/17 02:16:07;;;;;;;11.07;6.65;;;;;;;;;;4983208;28;20042;-78
2022/03/17 02:18:32;;;;;;;9.82;7.00;;;;;;;;;;4993192;28;20049;-77
2022/03/17 02:20:59;;;;;;;13.82;7.20;;;;;;;;;;5004762;28;20026;-78
2022/03/17 02:26:09;;;;;;;10.45;6.78;;;;;;;;;;5004497;28;20088;-81
2022/03/17 02:28:35;;;;;;;13.27;7.78;;;;;;;;;;5003253;28;20058;-74
2022/03/17 02:31:01;;;;;;;10.18;7.03;;;;;;;;;;5004434;28;20044;-76
2022/03/17 02:33:27;;;;;;;10.20;7.15;;;;;;;;;;5004024;28;20049;-77
2022/03/17 02:35:53;;;;;;;11.35;7.55;;;;;;;;;;5004122;28;20042;-78
2022/03/17 02:38:20;;;;;;;10.95;7.53;;;;;;;;;;5004037;28;20038;-78
2022/03/17 02:40:50;;;;;;;12.27;7.65;;;;;;;;;;4991140;28;20030;-80
2022/03/17 02:43:15;;;;;;;9.98;7.40;;;;;;;;;;4999543;28;20022;-81
2022/03/17 02:45:42;;;;;;;10.13;7.53;;;;;;;;;;5004579;28;20041;-75
2022/03/17 02:48:08;;;;;;;13.20;7.32;;;;;;;;;;5004608;28;20143;-76
2022/03/17 02:50:34;;;;;;;11.93;7.50;;;;;;;;;;5004288;28;20432;-79
2022/03/17 02:53:05;;;;;;;10.55;6.78;;;;;;;;;;5003994;28;20073;-75
2022/03/17 02:55:33;;;;;;;11.10;6.43;;;;;;;;;;5004223;28;20037;-75
2022/03/17 02:57:58;;;;;;;10.18;7.07;;;;;;;;;;5003364;28;20030;-75
2022/03/17 03:00:24;;;;;;;11.18;7.00;;;;;;;;;;5004112;28;20321;-75
2022/03/17 03:02:49;;;;;;;12.82;6.90;;;;;;;;;;5004254;28;20033;-76
2022/03/17 03:05:15;;;;;;;12.60;7.22;;;;;;;;;;5003451;28;20322;-76
2022/03/17 03:07:40;;;;;;;9.52;5.93;;;;;;;;;;5002539;28;20030;-79
2022/03/17 03:10:06;;;;;;;11.30;6.93;;;;;;;;;;5004128;28;20030;-80
2022/03/17 03:12:31;;;;;;;11.65;6.40;;;;;;;;;;5002891;28;20469;-80
2022/03/17 03:14:56;;;;;;;11.10;6.95;;;;;;;;;;5004107;28;20030;-75
2022/03/17 03:17:23;;;;;;;11.18;6.80;;;;;;;;;;5002659;28;20029;-81
2022/03/17 03:19:49;;;;;;;11.57;6.93;;;;;;;;;;5003624;28;20076;-77
2022/03/17 03:22:17;;;;;;;11.10;6.50;;;;;;;;;;5003364;28;20030;-76
2022/03/17 03:24:44;;;;;;;9.40;6.50;;;;;;;;;;5003617;28;20054;-79
2022/03/17 03:27:10;;;;;;;10.73;6.88;;;;;;;;;;5003661;28;20338;-75
2022/03/17 03:29:35;;;;;;;12.45;7.00;;;;;;;;;;5002777;28;20038;-76
2022/03/17 03:32:03;;;;;;;10.73;6.78;;;;;;;;;;5003011;28;20022;-78
2022/03/17 03:34:30;;;;;;;10.73;6.55;;;;;;;;;;5003126;28;20093;-82
2022/03/17 03:39:39;;;;;;;12.27;6.95;;;;;;;;;;5003436;28;20162;-79
2022/03/17 03:42:08;;;;;;;9.32;5.97;;;;;;;;;;5003416;28;20314;-79
2022/03/17 03:44:37;;;;;;;12.00;6.50;;;;;;;;;;5003279;28;20097;-78
2022/03/17 03:47:04;;;;;;;11.85;6.40;;;;;;;;;;5002955;28;20037;-85
2022/03/17 03:49:29;;;;;;;10.15;6.53;;;;;;;;;;5003116;28;20329;-79
2022/03/17 03:51:55;;;;;;;10.52;6.43;;;;;;;;;;5002616;28;20045;-83
2022/03/17 03:54:20;;;;;;;10.27;6.18;;;;;;;;;;5002842;28;20190;-79
2022/03/17 03:56:50;;;;;;;10.07;5.82;;;;;;;;;;5002727;28;20041;-80
2022/03/17 03:59:21;;;;;;;10.98;6.68;;;;;;;;;;5003030;28;20443;-81
2022/03/17 04:01:52;;;;;;;12.73;6.30;;;;;;;;;;5006287;28;20034;-76
2022/03/17 04:04:19;;;;;;;10.73;6.75;;;;;;;;;;5004596;28;20321;-80
2022/03/17 04:06:46;;;;;;;10.73;6.65;;;;;;;;;;5003506;28;20030;-78
2022/03/17 04:09:20;;;;;;;9.68;6.50;;;;;;;;;;5003032;28;20057;-75
2022/03/17 04:11:46;;;;;;;11.35;6.40;;;;;;;;;;5001766;28;20030;-81
2022/03/17 04:14:13;;;;;;;11.73;6.00;;;;;;;;;;5003019;28;20038;-78
2022/03/17 04:16:39;;;;;;;13.30;5.70;;;;;;;;;;5002618;28;20338;-78
2022/03/17 04:19:05;;;;;;;11.60;5.97;;;;;;;;;;5002269;28;20045;-81
2022/03/17 04:21:31;;;;;;;10.93;5.50;;;;;;;;;;5001497;28;20402;-81
2022/03/17 04:23:57;;;;;;;11.02;6.70;;;;;;;;;;5002991;28;20146;-83
2022/03/17 04:26:22;;;;;;;10.32;6.05;;;;;;;;;;5002524;28;20353;-80
2022/03/17 04:28:48;;;;;;;11.07;6.13;;;;;;;;;;5002736;28;20037;-80
2022/03/17 04:31:13;;;;;;;12.63;6.38;;;;;;;;;;5002277;28;20096;-83
2022/03/17 04:33:39;;;;;;;10.57;6.32;;;;;;;;;;5002442;28;20038;-75
2022/03/17 04:36:06;;;;;;;9.30;5.88;;;;;;;;;;5002139;28;20098;-75
2022/03/17 04:38:32;;;;;;;10.60;5.50;;;;;;;;;;5002275;28;20037;-76
2022/03/17 04:40:57;;;;;;;8.82;4.60;;;;;;;;;;5001045;28;20045;-76
2022/03/17 04:43:23;;;;;;;8.13;4.97;;;;;;;;;;5000784;28;20064;-75
2022/03/17 04:45:48;;;;;;;9.23;4.70;;;;;;;;;;5002301;28;20030;-75
2022/03/17 04:48:14;;;;;;;6.38;4.28;;;;;;;;;;5002361;28;20022;-75
2022/03/17 04:50:40;;;;;;;9.55;5.10;;;;;;;;;;5001954;28;20026;-75
2022/03/17 04:55:50;;;;;;;10.45;4.43;;;;;;;;;;5002147;28;20072;-75
2022/03/17 04:58:16;;;;;;;8.55;4.55;;;;;;;;;;5000490;28;20050;-75
2022/03/17 05:00:41;;;;;;;8.60;4.28;;;;;;;;;;5002057;28;20060;-75
2022/03/17 05:03:08;;;;;;;7.68;4.00;;;;;;;;;;5001805;28;20069;-75
2022/03/17 05:05:33;;;;;;;6.82;3.70;;;;;;;;;;5001506;28;20098;-75
2022/03/17 05:07:58;;;;;;;11.73;4.20;;;;;;;;;;5001512;28;20049;-75
2022/03/17 05:10:24;;;;;;;10.63;3.90;;;;;;;;;;5002076;28;20245;-75
2022/03/17 05:12:49;;;;;;;7.28;4.25;;;;;;;;;;5001816;28;20187;-75
2022/03/17 05:15:16;;;;;;;7.22;4.07;;;;;;;;;;5001549;28;20037;-75
2022/03/17 05:17:41;;;;;;;8.00;4.15;;;;;;;;;;5001692;28;20041;-75
2022/03/17 05:20:11;;;;;;;7.05;3.92;;;;;;;;;;5001701;28;20089;-75
2022/03/17 05:22:37;;;;;;;8.43;4.60;;;;;;;;;;5000904;28;20037;-76
2022/03/17 05:25:04;;;;;;;10.98;4.47;;;;;;;;;;5001635;28;20026;-75
2022/03/17 05:27:30;;;;;;;9.35;4.38;;;;;;;;;;5000849;28;20022;-76
2022/03/17 05:29:55;;;;;;;7.32;4.03;;;;;;;;;;4999615;28;20034;-75
2022/03/17 05:32:21;;;;;;;10.30;4.35;;;;;;;;;;4998820;28;20301;-75
2022/03/17 05:34:46;;;;;;;9.27;3.60;;;;;;;;;;5001524;28;20022;-75
2022/03/17 05:37:12;;;;;;;6.13;3.70;;;;;;;;;;5000280;28;20046;-75
2022/03/17 05:39:37;;;;;;;8.20;4.00;;;;;;;;;;5000567;28;20022;-76
2022/03/17 05:42:03;;;;;;;7.97;3.60;;;;;;;;;;5000840;28;20033;-74
2022/03/17 05:44:29;;;;;;;6.30;3.42;;;;;;;;;;4999704;28;20034;-74
2022/03/17 05:46:54;;;;;;;6.53;3.53;;;;;;;;;;5000069;28;20041;-74
2022/03/17 05:49:19;;;;;;;9.70;3.42;;;;;;;;;;4997790;28;20337;-73
2022/03/17 05:51:45;;;;;;;6.60;3.50;;;;;;;;;;4992705;28;20076;-74
2022/03/17 05:54:11;;;;;;;7.35;3.47;;;;;;;;;;4992936;28;20344;-74
2022/03/17 05:56:36;;;;;;;7.68;3.50;;;;;;;;;;4999684;28;20034;-76
2022/03/17 05:59:02;;;;;;;8.95;3.80;;;;;;;;;;5001198;28;20199;-80
2022/03/17 06:01:27;;;;;;;7.43;3.60;;;;;;;;;;5001326;28;20018;-74
2022/03/17 06:03:53;;;;;;;6.95;3.38;;;;;;;;;;5000299;28;20022;-78
2022/03/17 06:06:18;;;;;;;6.50;3.78;;;;;;;;;;5001253;28;20026;-73
2022/03/17 06:08:44;;;;;;;7.60;3.80;;;;;;;;;;4979476;28;20031;-73
2022/03/17 06:11:09;;;;;;;8.40;3.95;;;;;;;;;;4981026;28;20086;-73
2022/03/17 06:13:35;;;;;;;10.90;4.25;;;;;;;;;;4981827;28;20066;-73
2022/03/17 06:16:01;;;;;;;7.93;3.80;;;;;;;;;;4980302;28;20056;-74
2022/03/17 06:18:26;;;;;;;6.43;3.97;;;;;;;;;;4981586;28;20034;-73
2022/03/17 06:20:51;;;;;;;7.13;3.47;;;;;;;;;;4979917;28;20038;-73
2022/03/17 06:23:17;;;;;;;6.68;3.47;;;;;;;;;;4981261;28;20030;-74
2022/03/17 06:25:42;;;;;;;4.93;3.00;;;;;;;;;;4999970;28;20022;-74
2022/03/17 06:28:09;;;;;;;8.57;3.55;;;;;;;;;;5006020;28;20033;-73
2022/03/17 06:30:37;;;;;;;5.82;3.20;;;;;;;;;;5020361;28;20093;-75
2022/03/17 06:33:04;;;;;;;7.65;3.58;;;;;;;;;;4999927;28;20037;-74
2022/03/17 06:35:30;;;;;;;5.55;3.22;;;;;;;;;;4981289;28;20023;-81
2022/03/17 06:38:01;;;;;;;6.88;3.42;;;;;;;;;;4998263;28;20046;-76
2022/03/17 06:40:28;;;;;;;7.65;3.85;;;;;;;;;;5000048;28;20386;-76
2022/03/17 06:42:55;;;;;;;7.70;3.80;;;;;;;;;;5001526;28;20259;-75
2022/03/17 06:45:21;;;;;;;6.43;3.50;;;;;;;;;;5004356;28;20019;-77
2022/03/17 06:47:47;;;;;;;6.13;3.67;;;;;;;;;;5001387;28;20325;-80
2022/03/17 06:50:14;;;;;;;8.07;3.70;;;;;;;;;;5006367;28;20061;-74
2022/03/17 06:52:39;;;;;;;9.60;3.78;;;;;;;;;;5012772;28;20049;-76
2022/03/17 06:55:05;;;;;;;6.78;3.72;;;;;;;;;;5004031;28;20026;-74
2022/03/17 06:57:31;;;;;;;5.25;3.20;;;;;;;;;;5005064;28;20344;-74
2022/03/17 06:59:56;;;;;;;5.85;3.13;;;;;;;;;;5013345;28;20026;-73
2022/03/17 07:02:22;;;;;;;6.43;3.20;;;;;;;;;;5011122;28;20206;-73
2022/03/17 07:04:47;;;;;;;9.57;3.20;;;;;;;;;;5023552;28;20325;-73
2022/03/17 07:07:13;;;;;;;5.93;2.88;;;;;;;;;;5011328;28;20030;-73
2022/03/17 07:09:39;;;;;;;5.95;3.10;;;;;;;;;;5015765;28;20141;-73
2022/03/17 07:12:05;;;;;;;5.82;3.10;;;;;;;;;;5009230;28;20329;-72
2022/03/17 07:14:30;;;;;;;9.50;3.60;;;;;;;;;;5005074;28;20026;-72
2022/03/17 07:16:56;;;;;;;9.55;3.55;;;;;;;;;;5005298;28;20037;-73
2022/03/17 07:19:22;;;;;;;5.68;3.20;;;;;;;;;;5006872;28;20034;-73
2022/03/17 07:21:47;;;;;;;7.45;3.28;;;;;;;;;;5003703;28;20298;-73
2022/03/17 07:24:12;;;;;;;6.63;2.97;;;;;;;;;;5022329;28;20037;-77
2022/03/17 07:26:41;;;;;;;7.65;3.17;;;;;;;;;;5022991;28;20033;-78
2022/03/17 07:29:07;;;;;;;5.57;3.05;;;;;;;;;;5011914;28;20030;-76
2022/03/17 07:31:33;;;;;;;6.97;3.08;;;;;;;;;;5004626;28;20137;-73
2022/03/17 07:33:59;;;;;;;7.80;3.08;;;;;;;;;;5004312;28;20034;-81
2022/03/17 07:36:25;;;;;;;5.90;2.92;;;;;;;;;;5003071;28;20050;-76
2022/03/17 07:38:53;;;;;;;7.50;3.25;;;;;;;;;;5003844;28;20383;-78
2022/03/17 07:41:18;;;;;;;8.20;3.40;;;;;;;;;;5003683;28;20026;-75
2022/03/17 07:43:44;;;;;;;9.27;3.20;;;;;;;;;;5009811;28;20093;-77
2022/03/17 07:46:10;;;;;;;6.40;2.60;;;;;;;;;;5021153;28;20029;-82
2022/03/17 07:48:36;;;;;;;4.70;2.47;;;;;;;;;;5021509;28;20160;-75
2022/03/17 07:51:02;;;;;;;5.43;2.50;;;;;;;;;;5021385;28;20333;-74
2022/03/17 07:53:27;;;;;;;6.60;2.50;;;;;;;;;;5022467;28;20026;-78
2022/03/17 07:55:56;;;;;;;6.90;2.78;;;;;;;;;;5022923;28;20026;-75
2022/03/17 07:58:23;;;;;;;4.63;2.50;;;;;;;;;;5012537;28;20298;-84
2022/03/17 08:00:53;;;;;;;4.57;2.50;;;;;;;;;;5003170;28;20054;-78
2022/03/17 08:03:19;;;;;;;4.95;2.35;;;;;;;;;;5003054;28;20031;-78
2022/03/17 08:05:46;;;;;;;4.97;2.30;;;;;;;;;;5006892;28;20318;-77
2022/03/17 08:08:15;;;;;;;4.72;2.67;;;;;;;;;;5034352;28;20037;-74
2022/03/17 08:10:41;;;;;;;9.00;2.63;;;;;;;;;;5009882;28;20032;-73
2022/03/17 08:13:08;;;;;;;7.45;2.67;;;;;;;;;;5021173;28;20025;-77
2022/03/17 08:15:38;;;;;;;7.25;2.83;;;;;;;;;;5022604;28;20018;-72
2022/03/17 08:18:04;;;;;;;5.53;2.72;;;;;;;;;;5019176;28;20030;-78
2022/03/17 08:20:30;;;;;;;5.05;2.80;;;;;;;;;;5022056;28;20100;-72
2022/03/17 08:22:56;;;;;;;6.43;2.70;;;;;;;;;;5013502;28;20026;-75
2022/03/17 08:25:21;;;;;;;8.75;3.10;;;;;;;;;;5002665;28;20318;-72
2022/03/17 08:27:47;;;;;;;7.60;3.30;;;;;;;;;;5002710;28;20038;-81
2022/03/17 08:30:12;;;;;;;6.15;2.80;;;;;;;;;;5034100;28;20040;-77
2022/03/17 08:32:40;;;;;;;8.45;3.08;;;;;;;;;;5007857;28;20025;-73
2022/03/17 08:35:06;;;;;;;9.57;2.95;;;;;;;;;;5022068;28;20029;-80
2022/03/17 08:37:38;;;;;;;4.78;2.83;;;;;;;;;;5022123;28;20065;-74
2022/03/17 08:40:04;;;;;;;4.97;2.60;;;;;;;;;;5008185;28;20037;-76
2022/03/17 08:42:29;;;;;;;5.45;2.47;;;;;;;;;;5001619;28;20034;-73
2022/03/17 08:44:55;;;;;;;5.78;3.10;;;;;;;;;;5002461;28;20037;-73
2022/03/17 08:50:04;;;;;;;5.78;3.17;;;;;;;;;;5020039;28;20277;-78
2022/03/17 08:52:30;;;;;;;5.53;2.80;;;;;;;;;;5021310;28;20038;-77
2022/03/17 08:54:56;;;;;;;7.53;2.67;;;;;;;;;;5018861;28;20248;-83
2022/03/17 08:57:22;;;;;;;15.07;3.00;;;;;;;;;;5006695;28;20329;-78
2022/03/17 08:59:48;;;;;;;10.50;2.67;;;;;;;;;;5005482;28;20087;-78
2022/03/17 09:02:14;;;;;;;4.90;2.80;;;;;;;;;;5002996;28;20037;-82
2022/03/17 09:04:40;;;;;;;5.50;2.83;;;;;;;;;;5002548;28;20083;-77
2022/03/17 09:07:06;;;;;;;6.80;3.30;;;;;;;;;;5001567;28;20085;-80
2022/03/17 09:09:34;;;;;;;10.18;3.30;;;;;;;;;;5033519;28;20034;-80
2022/03/17 09:12:00;;;;;;;7.93;3.50;;;;;;;;;;5001835;28;20026;-81
2022/03/17 09:14:26;;;;;;;6.65;3.35;;;;;;;;;;5001945;28;20029;-74
2022/03/17 09:16:52;;;;;;;5.80;3.13;;;;;;;;;;5004009;28;20053;-76
2022/03/17 09:19:21;;;;;;;9.82;3.72;;;;;;;;;;5016505;28;20052;-74
2022/03/17 09:21:47;;;;;;;6.60;3.40;;;;;;;;;;5012137;28;20034;-79
2022/03/17 09:24:13;;;;;;;8.40;3.25;;;;;;;;;;5020036;28;20022;-76
2022/03/17 09:26:38;;;;;;;10.82;3.42;;;;;;;;;;5021552;28;20195;-75
2022/03/17 09:29:04;;;;;;;9.02;3.50;;;;;;;;;;5013662;28;20038;-84
2022/03/17 09:31:30;;;;;;;8.65;3.42;;;;;;;;;;5033316;28;20053;-82
2022/03/17 09:33:56;;;;;;;9.70;3.60;;;;;;;;;;5004784;28;20113;-75
2022/03/17 09:36:22;;;;;;;9.63;3.58;;;;;;;;;;5001616;28;20046;-81
2022/03/17 09:41:33;;;;;;;8.73;3.60;;;;;;;;;;5002178;28;20072;-81
2022/03/17 09:43:59;;;;;;;6.60;3.30;;;;;;;;;;5004381;28;20045;-80
2022/03/17 09:46:27;;;;;;;8.30;3.50;;;;;;;;;;5001606;28;20034;-78
2022/03/17 09:48:54;;;;;;;11.05;3.80;;;;;;;;;;5000667;28;20159;-78
2022/03/17 09:51:23;;;;;;;9.32;3.50;;;;;;;;;;5002709;28;20030;-73
2022/03/17 09:53:52;;;;;;;9.55;3.80;;;;;;;;;;5000637;28;20262;-75
2022/03/17 09:56:23;;;;;;;9.02;3.78;;;;;;;;;;5033934;28;20022;-75
2022/03/17 09:58:50;;;;;;;10.35;3.95;;;;;;;;;;5024291;28;20022;-74
2022/03/17 10:01:16;;;;;;;8.40;3.95;;;;;;;;;;5023212;28;20092;-82
2022/03/17 10:03:42;;;;;;;11.13;4.22;;;;;;;;;;5013839;28;20026;-74
2022/03/17 10:06:10;;;;;;;7.25;3.70;;;;;;;;;;5001358;28;20076;-75
2022/03/17 10:08:38;;;;;;;11.07;4.38;;;;;;;;;;5001571;28;20314;-81
2022/03/17 10:11:03;;;;;;;11.00;4.00;;;;;;;;;;5015445;28;20073;-78
2022/03/17 10:13:29;;;;;;;9.35;4.30;;;;;;;;;;5019182;28;20022;-76
2022/03/17 10:16:07;;;;;;;11.23;4.35;;;;;;;;;;5020750;28;20029;-76
2022/03/17 10:18:37;;;;;;;6.65;3.90;;;;;;;;;;5024132;28;20067;-76
2022/03/17 10:21:09;;;;;;;9.68;4.60;;;;;;;;;;5005413;28;20065;-78
2022/03/17 10:24:02;;;;;;;10.25;4.10;;;;;;;;;;5004671;28;20033;-74
2022/03/17 10:26:39;;;;;;;12.00;4.28;;;;;;;;;;4999303;28;20066;-73
2022/03/17 10:29:09;;;;;;;10.05;4.05;;;;;;;;;;5004548;28;20289;-72
2022/03/17 10:32:14;;;;;;;11.32;5.55;;;;;;;;;;5003518;28;20247;-74
2022/03/17 10:34:46;;;;;;;10.20;4.67;;;;;;;;;;5012116;28;20127;-80
2022/03/17 10:37:17;;;;;;;10.05;4.90;;;;;;;;;;5004296;28;20280;-79
2022/03/17 10:39:45;;;;;;;8.32;4.40;;;;;;;;;;5022538;28;20032;-74
2022/03/17 10:42:19;;;;;;;11.38;4.47;;;;;;;;;;5023848;28;20026;-77
2022/03/17 10:44:47;;;;;;;9.75;4.50;;;;;;;;;;5024050;28;20028;-81
2022/03/17 10:47:13;;;;;;;9.75;4.80;;;;;;;;;;5023745;28;20033;-80
2022/03/17 10:49:38;;;;;;;9.85;4.90;;;;;;;;;;5022216;28;20017;-74
2022/03/17 10:52:04;;;;;;;8.35;4.38;;;;;;;;;;5016513;28;20034;-77
2022/03/17 10:54:29;;;;;;;9.88;4.97;;;;;;;;;;5003645;28;20210;-75
2022/03/17 10:57:12;;;;;;;10.27;3.63;;;;;;;;;;5004366;28;20030;-78
2022/03/17 10:59:50;;;;;;;11.82;4.43;;;;;;;;;;5004817;28;20033;-72
2022/03/17 11:02:17;;;;;;;8.00;4.60;;;;;;;;;;5002953;28;20221;-82
2022/03/17 11:04:44;;;;;;;8.65;4.28;;;;;;;;;;5005166;28;20248;-81
2022/03/17 11:07:13;;;;;;;9.18;4.80;;;;;;;;;;5004159;28;20110;-72
2022/03/17 11:09:40;;;;;;;11.10;4.70;;;;;;;;;;5009076;28;20029;-78
2022/03/17 11:12:20;;;;;;;14.45;4.60;;;;;;;;;;5005201;28;20034;-72
2022/03/17 11:14:48;;;;;;;11.10;4.60;;;;;;;;;;5004059;28;20025;-80
2022/03/17 11:17:24;;;;;;;12.90;4.30;;;;;;;;;;5004782;28;20088;-71
2022/03/17 11:19:51;;;;;;;8.48;4.13;;;;;;;;;;5023352;28;20040;-80
2022/03/17 11:22:22;;;;;;;8.43;4.70;;;;;;;;;;5023242;28;20065;-79
2022/03/17 11:25:19;;;;;;;9.63;5.38;;;;;;;;;;5023861;28;20090;-83
2022/03/17 11:27:49;;;;;;;9.23;4.88;;;;;;;;;;5023096;28;20033;-71
2022/03/17 11:30:15;;;;;;;8.68;5.00;;;;;;;;;;5023543;28;20341;-74
2022/03/17 11:32:56;;;;;;;9.48;5.03;;;;;;;;;;5010391;28;20026;-75
2022/03/17 11:35:32;;;;;;;8.02;4.72;;;;;;;;;;5015356;28;20048;-74
2022/03/17 11:38:23;;;;;;;10.23;4.90;;;;;;;;;;5022913;28;20038;-73
2022/03/17 11:41:09;;;;;;;8.88;4.57;;;;;;;;;;5014623;28;20340;-74
2022/03/17 11:43:39;;;;;;;9.98;5.10;;;;;;;;;;5010129;28;20333;-74
2022/03/17 11:46:15;;;;;;;9.52;5.10;;;;;;;;;;5016536;28;20025;-73
2022/03/17 11:48:43;;;;;;;9.60;4.93;;;;;;;;;;5011555;28;20106;-74
2022/03/17 11:51:13;;;;;;;9.75;4.80;;;;;;;;;;4996722;28;20075;-73
2022/03/17 11:53:58;;;;;;;8.73;4.43;;;;;;;;;;4999788;28;20068;-72
2022/03/17 11:56:45;;;;;;;10.35;5.25;;;;;;;;;;4995210;28;20034;-73
2022/03/17 11:59:16;;;;;;;11.80;4.95;;;;;;;;;;4983568;28;20027;-73
2022/03/17 12:01:46;;;;;;;16.90;4.90;;;;;;;;;;4992815;28;20330;-73
2022/03/17 12:04:24;;;;;;;15.18;6.50;;;;;;;;;;5002730;28;20057;-73
2022/03/17 12:06:54;;;;;;;9.75;5.20;;;;;;;;;;5013027;28;20057;-74
2022/03/17 12:09:31;;;;;;;13.55;4.90;;;;;;;;;;5015736;28;20033;-78
2022/03/17 12:11:56;;;;;;;13.82;5.20;;;;;;;;;;5003247;28;20029;-73
2022/03/17 12:14:25;;;;;;;12.43;5.38;;;;;;;;;;5008148;28;20045;-74
2022/03/17 12:16:56;;;;;;;10.90;5.78;;;;;;;;;;5004854;28;20163;-75
2022/03/17 12:19:48;;;;;;;10.70;4.25;;;;;;;;;;5001165;28;20037;-74
2022/03/17 12:22:18;;;;;;;10.38;4.82;;;;;;;;;;5003438;28;20057;-74
2022/03/17 12:24:49;;;;;;;10.02;5.38;;;;;;;;;;5000120;28;20027;-81
2022/03/17 12:27:29;;;;;;;11.55;5.10;;;;;;;;;;4995854;28;20081;-78
2022/03/17 12:29:57;;;;;;;9.10;4.95;;;;;;;;;;4998973;28;20064;-79
2022/03/17 12:32:23;;;;;;;8.45;4.68;;;;;;;;;;4995698;28;20266;-82
2022/03/17 12:34:53;;;;;;;9.30;4.85;;;;;;;;;;4982227;28;20077;-75
2022/03/17 12:37:22;;;;;;;9.18;5.22;;;;;;;;;;4995699;28;20349;-76
2022/03/17 12:39:54;;;;;;;11.98;5.32;;;;;;;;;;4989371;28;20034;-73
2022/03/17 12:42:28;;;;;;;10.73;5.30;;;;;;;;;;4987871;28;20097;-73
2022/03/17 12:45:00;;;;;;;9.25;4.95;;;;;;;;;;4980812;28;20120;-76
2022/03/17 12:47:28;;;;;;;8.60;4.97;;;;;;;;;;4983245;28;20037;-75
2022/03/17 12:49:55;;;;;;;10.27;5.07;;;;;;;;;;4983587;28;20069;-75
2022/03/17 12:52:24;;;;;;;9.25;5.30;;;;;;;;;;5011051;28;20042;-74
2022/03/17 12:55:04;;;;;;;10.50;5.40;;;;;;;;;;4995777;28;20096;-76
2022/03/17 12:57:31;;;;;;;11.45;5.00;;;;;;;;;;5008030;28;20025;-75
2022/03/17 12:59:57;;;;;;;9.18;4.63;;;;;;;;;;5000770;28;20029;-76
2022/03/17 13:02:24;;;;;;;9.48;4.55;;;;;;;;;;5001104;28;20302;-75
2022/03/17 13:04:55;;;;;;;10.30;4.72;;;;;;;;;;5001620;28;20030;-76
2022/03/17 13:07:23;;;;;;;9.38;4.68;;;;;;;;;;5001615;28;20050;-75
2022/03/17 13:09:49;;;;;;;11.55;5.20;;;;;;;;;;5000638;28;20072;-75
2022/03/17 13:15:15;;;;;;;9.43;5.47;;;;;;;;;;5001938;28;20049;-75
2022/03/17 13:17:49;;;;;;;24.40;6.55;;;;;;;;;;5039529;28;20026;-75
2022/03/17 13:20:21;;;;;;;10.97;5.23;;;;;;;;;;5001410;28;20317;-75
2022/03/17 13:23:00;;;;;;;11.77;6.15;;;;;;;;;;5001442;28;20022;-75
2022/03/17 13:25:27;;;;;;;9.30;5.15;;;;;;;;;;5001743;28;20018;-75
2022/03/17 13:28:07;;;;;;;10.32;5.35;;;;;;;;;;5001590;28;20329;-75
2022/03/17 13:30:34;;;;;;;11.05;5.05;;;;;;;;;;5000926;28;20054;-75
2022/03/17 13:33:12;;;;;;;10.52;5.25;;;;;;;;;;4999684;28;20053;-75
2022/03/17 13:35:39;;;;;;;12.98;5.85;;;;;;;;;;5001131;28;20022;-75
2022/03/17 13:38:04;;;;;;;10.80;5.88;;;;;;;;;;5001047;28;20100;-75
2022/03/17 13:40:40;;;;;;;12.43;5.75;;;;;;;;;;5001368;28;20055;-75
2022/03/17 13:43:06;;;;;;;12.40;6.15;;;;;;;;;;5001552;28;20265;-80
2022/03/17 13:45:39;;;;;;;10.25;5.45;;;;;;;;;;5013325;28;20045;-75
2022/03/17 13:48:05;;;;;;;10.40;5.22;;;;;;;;;;4992355;28;20031;-75
2022/03/17 13:50:32;;;;;;;10.85;5.65;;;;;;;;;;4982573;28;20026;-75
2022/03/17 13:53:06;;;;;;;8.93;5.45;;;;;;;;;;4985604;28;20082;-76
2022/03/17 13:55:44;;;;;;;9.77;5.18;;;;;;;;;;4985797;28;20082;-76
2022/03/17 13:58:28;;;;;;;13.88;5.45;;;;;;;;;;4985024;28;20031;-76
2022/03/17 14:00:55;;;;;;;10.27;5.88;;;;;;;;;;4985690;28;20058;-75
2022/03/17 14:03:28;;;;;;;11.43;5.78;;;;;;;;;;4985792;28;20033;-75
2022/03/17 14:06:14;;;;;;;12.57;5.78;;;;;;;;;;4985623;28;20038;-75
2022/03/17 14:08:40;;;;;;;12.27;5.53;;;;;;;;;;4985636;28;20023;-75
2022/03/17 14:11:08;;;;;;;11.48;6.20;;;;;;;;;;4988560;28;20034;-77
2022/03/17 14:13:35;;;;;;;13.65;6.18;;;;;;;;;;5005308;28;20037;-77
2022/03/17 14:16:01;;;;;;;11.43;6.28;;;;;;;;;;5004693;28;20029;-76
2022/03/17 14:18:26;;;;;;;11.10;6.88;;;;;;;;;;5004118;28;20046;-76
2022/03/17 14:20:52;;;;;;;11.57;5.72;;;;;;;;;;5004786;28;20389;-75
2022/03/17 14:26:03;;;;;;;12.75;6.32;;;;;;;;;;4993417;28;20227;-75
2022/03/17 14:28:29;;;;;;;12.30;6.03;;;;;;;;;;5003561;28;20022;-75
2022/03/17 14:30:54;;;;;;;11.15;6.40;;;;;;;;;;5004517;28;20039;-76
2022/03/17 14:33:19;;;;;;;11.27;6.22;;;;;;;;;;5004566;28;20022;-76
2022/03/17 14:35:51;;;;;;;10.98;6.53;;;;;;;;;;5004360;28;20273;-75
2022/03/17 14:38:17;;;;;;;15.20;6.20;;;;;;;;;;5003703;28;20046;-75
2022/03/17 14:40:42;;;;;;;13.13;6.13;;;;;;;;;;5004446;28;20344;-75
2022/03/17 14:43:08;;;;;;;12.43;6.57;;;;;;;;;;5003683;28;20026;-76
2022/03/17 14:45:33;;;;;;;9.82;5.60;;;;;;;;;;5003893;28;20026;-75
2022/03/17 14:47:59;;;;;;;10.20;6.00;;;;;;;;;;5004201;28;20042;-75
2022/03/17 14:50:24;;;;;;;8.70;5.47;;;;;;;;;;4986723;28;20037;-80
2022/03/17 14:52:52;;;;;;;13.63;5.90;;;;;;;;;;4983298;28;20030;-75
2022/03/17 14:55:17;;;;;;;11.07;5.95;;;;;;;;;;4984747;28;20049;-76
2022/03/17 14:57:42;;;;;;;13.38;6.38;;;;;;;;;;4984594;28;20219;-75
2022/03/17 15:00:09;;;;;;;10.82;6.03;;;;;;;;;;4984768;28;20069;-81
2022/03/17 15:02:34;;;;;;;12.68;5.45;;;;;;;;;;4983378;28;20062;-75
2022/03/17 15:05:00;;;;;;;12.75;5.65;;;;;;;;;;4984876;28;20022;-74